createdAt,value
2019-04-06T00:00:57.512Z,11.15
2019-04-06T00:03:25.956Z,11.33
2019-04-06T00:05:54.525Z,11.15
2019-04-06T00:08:23.043Z,10.60
2019-04-06T00:10:51.605Z,10.60
2019-04-06T00:13:20.129Z,11.15
2019-04-06T00:15:48.620Z,10.72
2019-04-06T00:18:17.228Z,11.40
2019-04-06T00:20:45.788Z,10.40
2019-04-06T00:23:14.284Z,10.88
2019-04-06T00:25:44.572Z,10.58
2019-04-06T00:28:13.031Z,11.05
2019-04-06T00:30:43.107Z,11.05
2019-04-06T00:33:25.266Z,10.00
2019-04-06T00:35:53.780Z,10.55
2019-04-06T00:38:22.293Z,10.20
2019-04-06T00:40:50.871Z,10.60
2019-04-06T00:43:19.305Z,10.35
2019-04-06T00:45:47.810Z,10.58
2019-04-06T00:48:16.334Z,10.25
2019-04-06T00:50:45.070Z,9.83
2019-04-06T00:53:13.604Z,9.75
2019-04-06T00:55:42.135Z,10.68
2019-04-06T00:58:10.660Z,10.28
2019-04-06T01:00:39.230Z,10.20
2019-04-06T01:03:07.694Z,9.73
2019-04-06T01:05:36.174Z,9.93
2019-04-06T01:08:04.985Z,10.43
2019-04-06T01:10:33.488Z,9.43
2019-04-06T01:13:02.058Z,9.68
2019-04-06T01:15:30.576Z,9.50
2019-04-06T01:18:01.962Z,9.83
2019-04-06T01:20:30.411Z,10.05
2019-04-06T01:22:58.975Z,9.90
2019-04-06T01:25:27.416Z,9.63
2019-04-06T01:27:56.002Z,9.53
2019-04-06T01:30:24.574Z,9.38
2019-04-06T01:32:53.157Z,9.83
2019-04-06T01:35:21.578Z,9.35
2019-04-06T01:37:50.095Z,8.80
2019-04-06T01:40:18.522Z,8.95
2019-04-06T01:42:47.041Z,9.05
2019-04-06T01:45:15.467Z,9.08
2019-04-06T01:47:43.977Z,9.25
2019-04-06T01:50:12.412Z,9.30
2019-04-06T01:52:40.915Z,9.25
2019-04-06T01:55:09.432Z,9.13
2019-04-06T01:57:38.003Z,9.00
2019-04-06T02:00:09.151Z,8.93
2019-04-06T02:02:39.307Z,9.13
2019-04-06T02:05:08.178Z,9.20
2019-04-06T02:07:36.756Z,8.70
2019-04-06T02:10:06.396Z,8.80
2019-04-06T02:12:35.013Z,9.60
2019-04-06T02:15:04.448Z,8.85
2019-04-06T02:17:32.942Z,9.48
2019-04-06T02:20:01.446Z,9.38
2019-04-06T02:22:30.023Z,8.53
2019-04-06T02:24:58.541Z,8.88
2019-04-06T02:27:27.043Z,8.95
2019-04-06T02:30:09.532Z,8.75
2019-04-06T02:32:39.680Z,8.63
2019-04-06T02:35:12.739Z,9.20
2019-04-06T02:37:51.862Z,9.05
2019-04-06T02:40:24.836Z,9.50
2019-04-06T02:42:55.132Z,10.28
2019-04-06T02:45:23.777Z,9.00
2019-04-06T02:47:52.355Z,8.93
2019-04-06T02:50:21.010Z,9.38
2019-04-06T02:52:49.548Z,9.28
2019-04-06T02:55:18.128Z,9.03
2019-04-06T02:57:52.375Z,9.28
2019-04-06T03:00:20.880Z,9.60
2019-04-06T03:02:49.365Z,9.48
2019-04-06T03:05:17.878Z,10.53
2019-04-06T03:07:46.507Z,10.00
2019-04-06T03:10:15.061Z,9.38
2019-04-06T03:12:43.496Z,9.58
2019-04-06T03:15:12.257Z,10.15
2019-04-06T03:17:43.652Z,8.90
2019-04-06T03:20:12.161Z,8.08
2019-04-06T03:22:40.728Z,9.38
2019-04-06T03:25:09.220Z,8.98
2019-04-06T03:27:37.784Z,9.28
2019-04-06T03:30:07.484Z,9.48
2019-04-06T03:32:35.934Z,10.15
2019-04-06T03:35:04.851Z,8.95
2019-04-06T03:37:33.752Z,9.43
2019-04-06T03:40:02.262Z,9.83
2019-04-06T03:42:30.838Z,10.05
2019-04-06T03:44:59.416Z,9.53
2019-04-06T03:47:27.949Z,8.80
2019-04-06T03:49:56.532Z,9.13
2019-04-06T03:52:25.103Z,9.43
2019-04-06T03:54:53.777Z,9.53
2019-04-06T03:57:22.376Z,9.18
2019-04-06T03:59:50.959Z,10.35
2019-04-06T04:02:19.487Z,10.43
2019-04-06T04:04:47.990Z,10.68
2019-04-06T04:07:16.618Z,10.55
2019-04-06T04:09:45.939Z,10.30
2019-04-06T04:12:14.457Z,9.55
2019-04-06T04:14:42.995Z,8.30
2019-04-06T04:17:11.466Z,8.90
2019-04-06T04:19:39.969Z,9.25
2019-04-06T04:22:08.474Z,9.18
2019-04-06T04:24:37.245Z,8.95
2019-04-06T04:27:05.785Z,9.70
2019-04-06T04:29:34.300Z,8.85
2019-04-06T04:32:02.809Z,9.08
2019-04-06T04:34:31.317Z,9.00
2019-04-06T04:36:59.832Z,9.55
2019-04-06T04:39:28.400Z,10.05
2019-04-06T04:41:56.940Z,10.10
2019-04-06T04:44:25.439Z,9.88
2019-04-06T04:46:53.951Z,10.20
2019-04-06T04:49:22.526Z,9.80
2019-04-06T04:51:51.416Z,9.47
2019-04-06T04:54:19.993Z,9.85
2019-04-06T04:56:48.440Z,9.38
2019-04-06T04:59:17.006Z,9.25
2019-04-06T05:01:45.522Z,9.73
2019-04-06T05:04:14.098Z,9.28
2019-04-06T05:06:42.670Z,10.32
2019-04-06T05:09:11.393Z,9.85
2019-04-06T05:11:40.082Z,10.58
2019-04-06T05:14:44.854Z,10.40
2019-04-06T05:17:13.433Z,11.50
2019-04-06T05:19:42.011Z,11.20
2019-04-06T05:22:10.566Z,10.88
2019-04-06T05:24:39.158Z,11.00
2019-04-06T05:27:07.760Z,10.25
2019-04-06T05:29:36.322Z,10.90
2019-04-06T05:32:04.980Z,10.50
2019-04-06T05:34:33.608Z,10.18
2019-04-06T05:37:02.191Z,10.78
2019-04-06T05:39:30.769Z,10.38
2019-04-06T05:41:59.290Z,10.55
2019-04-06T05:44:27.876Z,10.10
2019-04-06T05:46:56.431Z,10.20
2019-04-06T05:49:24.904Z,10.43
2019-04-06T05:51:53.414Z,10.08
2019-04-06T05:54:21.854Z,8.90
2019-04-06T05:56:50.446Z,10.38
2019-04-06T05:59:19.059Z,10.55
2019-04-06T06:01:48.917Z,10.60
2019-04-06T06:04:18.028Z,10.40
2019-04-06T06:06:46.552Z,10.78
2019-04-06T06:09:15.048Z,9.55
2019-04-06T06:11:43.628Z,10.95
2019-04-06T06:14:12.319Z,10.18
2019-04-06T06:16:40.983Z,9.40
2019-04-06T06:19:09.501Z,10.13
2019-04-06T06:21:38.024Z,10.38
2019-04-06T06:24:06.459Z,10.90
2019-04-06T06:26:35.015Z,9.70
2019-04-06T06:29:03.536Z,10.80
2019-04-06T06:31:32.035Z,10.63
2019-04-06T06:34:00.594Z,9.98
2019-04-06T06:36:29.017Z,10.00
2019-04-06T06:38:57.558Z,10.00
2019-04-06T06:41:26.038Z,10.40
2019-04-06T06:43:54.615Z,10.05
2019-04-06T06:46:23.277Z,10.00
2019-04-06T06:48:51.901Z,10.48
2019-04-06T06:51:20.454Z,11.00
2019-04-06T06:53:49.025Z,11.40
2019-04-06T06:56:17.467Z,11.70
2019-04-06T06:58:46.045Z,12.15
2019-04-06T07:01:14.572Z,11.70
2019-04-06T07:03:43.074Z,11.60
2019-04-06T07:06:11.582Z,12.63
2019-04-06T07:08:40.093Z,12.07
2019-04-06T07:11:08.768Z,13.22
2019-04-06T07:13:37.361Z,14.05
2019-04-06T07:16:05.940Z,12.43
2019-04-06T07:18:34.491Z,12.00
2019-04-06T07:21:03.057Z,12.45
2019-04-06T07:23:31.848Z,13.05
2019-04-06T07:26:01.477Z,12.23
2019-04-06T07:28:37.549Z,11.97
2019-04-06T07:31:00.645Z,12.33
2019-04-06T07:33:29.215Z,13.50
2019-04-06T07:35:58.168Z,12.95
2019-04-06T07:38:27.252Z,12.63
2019-04-06T07:40:55.793Z,13.17
2019-04-06T07:43:24.384Z,12.88
2019-04-06T07:45:52.980Z,13.15
2019-04-06T07:48:21.489Z,12.88
2019-04-06T07:50:50.087Z,14.83
2019-04-06T07:53:18.513Z,13.08
2019-04-06T07:55:47.108Z,13.43
2019-04-06T07:58:16.034Z,13.45
2019-04-06T08:00:45.173Z,13.28
2019-04-06T08:03:13.756Z,13.03
2019-04-06T08:05:42.373Z,13.95
2019-04-06T08:08:10.884Z,14.53
2019-04-06T08:10:39.477Z,14.78
2019-04-06T08:13:07.911Z,14.10
2019-04-06T08:15:36.490Z,14.23
2019-04-06T08:18:04.921Z,14.43
2019-04-06T08:20:33.529Z,14.83
2019-04-06T08:23:02.043Z,15.18
2019-04-06T08:25:30.542Z,14.60
2019-04-06T08:27:59.143Z,14.65
2019-04-06T08:30:27.652Z,14.87
2019-04-06T08:32:56.177Z,13.90
2019-04-06T08:35:26.436Z,13.90
2019-04-06T08:37:55.147Z,14.60
2019-04-06T08:40:23.791Z,14.95
2019-04-06T08:42:52.251Z,14.75
2019-04-06T08:45:20.761Z,14.98
2019-04-06T08:47:49.308Z,14.60
2019-04-06T08:50:17.969Z,14.78
2019-04-06T08:52:46.608Z,14.30
2019-04-06T08:55:15.410Z,14.60
2019-04-06T08:57:44.093Z,14.78
2019-04-06T09:00:12.942Z,14.20
2019-04-06T09:02:44.407Z,14.30
2019-04-06T09:05:12.949Z,15.23
2019-04-06T09:07:41.459Z,13.93
2019-04-06T09:10:10.780Z,13.75
2019-04-06T09:12:39.402Z,14.78
2019-04-06T09:15:09.184Z,13.45
2019-04-06T09:17:38.090Z,13.62
2019-04-06T09:20:07.509Z,14.15
2019-04-06T09:22:39.096Z,14.60
2019-04-06T09:25:07.852Z,14.23
2019-04-06T09:27:37.175Z,13.80
2019-04-06T09:30:06.228Z,15.03
2019-04-06T09:32:34.831Z,15.65
2019-04-06T09:35:03.411Z,14.85
2019-04-06T09:37:32.150Z,15.03
2019-04-06T09:40:00.747Z,15.77
2019-04-06T09:42:29.538Z,15.30
2019-04-06T09:44:59.857Z,15.63
2019-04-06T09:47:33.002Z,15.53
2019-04-06T09:50:19.707Z,15.63
2019-04-06T09:52:52.430Z,15.93
2019-04-06T09:55:22.788Z,16.97
2019-04-06T09:58:09.590Z,16.62
2019-04-06T10:00:45.761Z,16.55
2019-04-06T10:03:19.177Z,16.25
2019-04-06T10:06:05.675Z,16.97
2019-04-06T10:08:37.842Z,16.20
2019-04-06T10:11:11.508Z,16.85
2019-04-06T10:13:54.184Z,16.12
2019-04-06T10:16:40.667Z,18.05
2019-04-06T10:19:10.913Z,17.32
2019-04-06T10:21:57.372Z,17.90
2019-04-06T10:24:27.438Z,16.62
2019-04-06T10:26:57.515Z,15.93
2019-04-06T10:29:30.729Z,16.07
2019-04-06T10:32:06.975Z,16.97
2019-04-06T10:34:43.128Z,16.05
2019-04-06T10:37:29.659Z,15.40
2019-04-06T10:39:59.783Z,14.43
2019-04-06T10:42:45.433Z,13.90
2019-04-06T10:45:27.479Z,14.20
2019-04-06T10:48:12.699Z,14.70
2019-04-06T10:51:00.311Z,14.60
2019-04-06T10:53:39.674Z,14.95
2019-04-06T10:56:18.995Z,14.30
2019-04-06T10:58:49.243Z,14.90
2019-04-06T11:01:28.123Z,14.83
2019-04-06T11:04:04.382Z,13.70
2019-04-06T11:06:37.603Z,14.87
2019-04-06T11:09:18.916Z,14.03
2019-04-06T11:11:51.691Z,14.13
2019-04-06T11:14:28.185Z,13.20
2019-04-06T11:17:04.608Z,13.55
2019-04-06T11:19:43.856Z,13.98
2019-04-06T11:22:30.278Z,13.03
2019-04-06T11:25:15.619Z,14.38
2019-04-06T11:27:45.701Z,14.10
2019-04-06T11:30:21.932Z,14.23
2019-04-06T11:33:08.309Z,13.88
2019-04-06T11:35:53.633Z,14.13
2019-04-06T11:41:37.957Z,13.45
2019-04-06T11:44:10.912Z,14.05
2019-04-06T11:46:44.074Z,13.93
2019-04-06T11:49:23.127Z,14.43
2019-04-06T11:51:54.255Z,14.40
2019-04-06T11:54:42.540Z,15.38
2019-04-06T11:57:41.144Z,14.95
2019-04-06T12:00:25.579Z,15.48
2019-04-06T12:02:54.821Z,15.05
2019-04-06T12:05:27.538Z,14.90
2019-04-06T12:08:03.972Z,16.15
2019-04-06T12:10:52.468Z,14.68
2019-04-06T12:13:31.127Z,14.78
2019-04-06T12:16:17.834Z,15.45
2019-04-06T12:19:00.642Z,14.85
2019-04-06T12:21:33.299Z,15.30
2019-04-06T12:24:19.856Z,16.25
2019-04-06T12:26:52.920Z,14.73
2019-04-06T12:29:32.120Z,15.28
2019-04-06T12:32:02.336Z,14.85
2019-04-06T12:34:35.144Z,15.00
2019-04-06T12:37:05.376Z,14.10
2019-04-06T12:39:52.773Z,15.13
2019-04-06T12:42:16.265Z,14.63
2019-04-06T12:44:52.941Z,15.10
2019-04-06T12:47:39.265Z,14.10
2019-04-06T12:50:24.129Z,13.95
2019-04-06T12:53:13.649Z,14.23
2019-04-06T12:55:55.499Z,13.78
2019-04-06T12:58:26.077Z,14.10
2019-04-06T13:00:56.169Z,13.65
2019-04-06T13:03:41.528Z,14.53
2019-04-06T13:06:11.602Z,13.58
2019-04-06T13:08:50.969Z,13.10
2019-04-06T13:11:21.257Z,12.73
2019-04-06T13:14:09.769Z,12.78
2019-04-06T13:16:40.062Z,12.73
2019-04-06T13:19:19.338Z,13.03
2019-04-06T13:22:07.682Z,12.73
2019-04-06T13:24:40.869Z,13.75
2019-04-06T13:27:11.011Z,13.48
2019-04-06T13:29:47.177Z,13.88
2019-04-06T13:32:29.902Z,14.15
2019-04-06T13:35:11.831Z,13.65
2019-04-06T13:37:47.717Z,15.30
2019-04-06T13:40:20.493Z,14.95
2019-04-06T13:42:57.548Z,14.00
2019-04-06T13:45:30.991Z,13.10
2019-04-06T13:48:07.429Z,13.88
2019-04-06T13:50:37.611Z,13.38
2019-04-06T13:53:13.228Z,13.50
2019-04-06T13:55:46.957Z,14.13
2019-04-06T14:01:18.545Z,13.50
2019-04-06T14:03:54.591Z,13.85
2019-04-06T14:06:41.139Z,12.98
2019-04-06T14:09:11.357Z,14.43
2019-04-06T14:11:50.794Z,13.78
2019-04-06T14:14:29.014Z,13.13
2019-04-06T14:17:04.449Z,13.65
2019-04-06T14:19:49.568Z,13.13
2019-04-06T14:22:25.378Z,13.55
2019-04-06T14:24:55.566Z,13.78
2019-04-06T14:27:26.567Z,13.58
2019-04-06T14:29:56.856Z,13.30
2019-04-06T14:32:26.965Z,13.08
2019-04-06T14:34:59.631Z,12.82
2019-04-06T14:37:29.714Z,12.68
2019-04-06T14:40:06.068Z,13.30
2019-04-06T14:42:39.326Z,13.75
2019-04-06T14:45:26.761Z,13.03
2019-04-06T14:47:57.356Z,13.20
2019-04-06T14:50:36.386Z,13.25
2019-04-06T14:53:22.777Z,12.23
2019-04-06T14:55:55.852Z,13.72
2019-04-06T14:58:42.655Z,13.38
2019-04-06T15:01:45.445Z,14.28
2019-04-06T15:04:09.268Z,13.22
2019-04-06T15:06:55.956Z,12.07
2019-04-06T15:09:37.971Z,12.75
2019-04-06T15:12:17.362Z,13.25
2019-04-06T15:14:53.510Z,14.18
2019-04-06T15:17:40.133Z,14.07
2019-04-06T15:20:26.570Z,13.78
2019-04-06T15:23:13.503Z,14.70
2019-04-06T15:25:50.266Z,14.65
2019-04-06T15:28:36.637Z,13.83
2019-04-06T15:31:23.385Z,14.30
2019-04-06T15:33:53.523Z,14.10
2019-04-06T15:36:32.961Z,15.08
2019-04-06T15:39:05.945Z,14.68
2019-04-06T15:41:36.550Z,14.93
2019-04-06T15:44:23.422Z,15.35
2019-04-06T15:46:58.144Z,16.17
2019-04-06T15:49:29.598Z,16.00
2019-04-06T15:52:15.531Z,16.30
2019-04-06T15:55:02.067Z,15.55
2019-04-06T15:57:48.293Z,15.60
2019-04-06T16:00:27.548Z,15.70
2019-04-06T16:02:57.848Z,15.85
2019-04-06T16:05:40.247Z,15.23
2019-04-06T16:08:10.464Z,15.98
2019-04-06T16:10:50.314Z,15.98
2019-04-06T16:16:06.353Z,16.80
2019-04-06T16:18:48.395Z,17.37
2019-04-06T16:21:33.869Z,16.55
2019-04-06T16:24:11.219Z,16.82
2019-04-06T16:26:57.105Z,23.90
2019-04-06T16:29:43.852Z,19.52
2019-04-06T16:32:33.474Z,18.40
2019-04-06T16:35:11.618Z,18.27
2019-04-06T16:37:41.796Z,18.32
2019-04-06T16:40:27.944Z,18.20
2019-04-06T16:43:07.270Z,18.32
2019-04-06T16:45:40.360Z,22.00
2019-04-06T16:48:25.787Z,18.60
2019-04-06T16:51:12.052Z,24.72
2019-04-06T16:53:45.935Z,19.90
2019-04-06T16:56:35.741Z,18.60
2019-04-06T16:59:22.246Z,17.75
2019-04-06T17:01:53.464Z,17.82
2019-04-06T17:04:29.526Z,19.52
2019-04-06T17:07:03.152Z,19.37
2019-04-06T17:09:38.302Z,19.82
2019-04-06T17:12:14.345Z,21.12
2019-04-06T17:15:00.885Z,20.95
2019-04-06T17:18:16.898Z,21.17
2019-04-06T17:20:56.349Z,20.72
2019-04-06T17:23:35.483Z,21.27
2019-04-06T17:26:20.889Z,21.25
2019-04-06T17:29:00.332Z,23.75
2019-04-06T17:31:30.833Z,22.98
2019-04-06T17:34:19.260Z,23.50
2019-04-06T17:36:58.743Z,24.87
2019-04-06T17:39:28.827Z,26.20
2019-04-06T17:42:14.213Z,26.60
2019-04-06T17:44:50.282Z,28.50
2019-04-06T17:47:20.452Z,28.45
2019-04-06T17:49:59.681Z,29.45
2019-04-06T17:52:35.897Z,31.55
2019-04-06T17:55:13.417Z,32.50
2019-04-06T17:57:50.115Z,30.80
2019-04-06T18:00:24.630Z,32.13
2019-04-06T18:02:55.658Z,31.82
2019-04-06T18:05:26.093Z,30.85
2019-04-06T18:07:57.901Z,30.23
2019-04-06T18:10:44.146Z,31.50
2019-04-06T18:13:16.942Z,30.08
2019-04-06T18:15:46.103Z,31.17
2019-04-06T18:18:16.232Z,30.12
2019-04-06T18:20:45.037Z,30.48
2019-04-06T18:23:14.154Z,29.92
2019-04-06T18:25:42.878Z,30.60
2019-04-06T18:28:11.660Z,30.32
2019-04-06T18:30:40.623Z,29.35
2019-04-06T18:33:10.914Z,26.50
2019-04-06T18:35:39.566Z,28.27
2019-04-06T18:38:11.217Z,26.50
2019-04-06T18:40:40.310Z,27.52
2019-04-06T18:43:08.906Z,26.23
2019-04-06T18:45:37.614Z,27.95
2019-04-06T18:48:07.705Z,26.97
2019-04-06T18:50:38.770Z,26.42
2019-04-06T18:53:06.649Z,26.10
2019-04-06T18:55:35.141Z,27.07
2019-04-06T18:58:12.239Z,25.23
2019-04-06T19:00:33.881Z,24.63
2019-04-06T19:03:12.549Z,23.65
2019-04-06T19:05:33.837Z,24.82
2019-04-06T19:08:04.200Z,21.80
2019-04-06T19:10:32.641Z,22.65
2019-04-06T19:13:01.185Z,21.82
2019-04-06T19:15:29.733Z,21.40
2019-04-06T19:17:59.954Z,21.60
2019-04-06T19:20:28.539Z,21.60
2019-04-06T19:22:57.217Z,19.80
2019-04-06T19:25:26.075Z,16.57
2019-04-06T19:27:55.103Z,18.52
2019-04-06T19:30:26.004Z,17.27
2019-04-06T19:32:55.806Z,16.82
2019-04-06T19:35:24.621Z,16.50
2019-04-06T19:37:53.541Z,17.13
2019-04-06T19:40:22.583Z,17.77
2019-04-06T19:42:51.225Z,17.67
2019-04-06T19:45:19.737Z,16.75
2019-04-06T19:47:48.387Z,17.07
2019-04-06T19:50:18.050Z,16.52
2019-04-06T19:52:46.935Z,17.02
2019-04-06T19:55:15.612Z,16.27
2019-04-06T19:57:44.131Z,17.07
2019-04-06T20:00:14.588Z,16.65
2019-04-06T20:02:42.963Z,16.52
2019-04-06T20:05:14.296Z,16.65
2019-04-06T20:07:43.384Z,15.93
2019-04-06T20:10:11.872Z,16.10
2019-04-06T20:12:40.464Z,16.07
2019-04-06T20:15:09.047Z,15.25
2019-04-06T20:17:39.086Z,15.53
2019-04-06T20:20:07.905Z,14.23
2019-04-06T20:22:43.517Z,14.07
2019-04-06T20:25:12.571Z,14.87
2019-04-06T20:27:42.025Z,15.03
2019-04-06T20:30:13.657Z,14.53
2019-04-06T20:32:42.183Z,15.03
2019-04-06T20:35:10.955Z,14.63
2019-04-06T20:37:39.602Z,16.02
2019-04-06T20:40:08.700Z,15.05
2019-04-06T20:42:37.337Z,15.30
2019-04-06T20:45:10.633Z,14.45
2019-04-06T20:47:40.041Z,14.43
2019-04-06T20:50:09.168Z,14.90
2019-04-06T20:52:37.951Z,15.08
2019-04-06T20:55:07.923Z,15.70
2019-04-06T20:57:36.544Z,15.45
2019-04-06T21:00:08.306Z,15.23
2019-04-06T21:02:37.073Z,16.15
2019-04-06T21:05:07.118Z,15.88
2019-04-06T21:07:35.622Z,15.23
2019-04-06T21:10:08.795Z,16.35
2019-04-06T21:12:37.573Z,16.97
2019-04-06T21:15:16.928Z,16.37
2019-04-06T21:17:37.057Z,16.05
2019-04-06T21:20:07.408Z,16.60
2019-04-06T21:22:36.064Z,15.88
2019-04-06T21:25:05.901Z,15.13
2019-04-06T21:30:02.768Z,16.30
2019-04-06T21:32:31.310Z,15.05
2019-04-06T21:35:00.360Z,16.15
2019-04-06T21:37:29.073Z,15.72
2019-04-06T21:39:57.840Z,15.58
2019-04-06T21:42:26.470Z,14.93
2019-04-06T21:44:55.930Z,15.65
2019-04-06T21:47:24.732Z,16.32
2019-04-06T21:49:53.334Z,15.65
2019-04-06T21:52:21.851Z,16.75
2019-04-06T21:54:50.438Z,16.77
2019-04-06T21:57:38.803Z,16.37
2019-04-06T22:00:13.486Z,16.37
2019-04-06T22:02:44.630Z,17.17
2019-04-06T22:05:12.419Z,17.48
2019-04-06T22:07:48.100Z,17.67
2019-04-06T22:10:11.763Z,17.70
2019-04-06T22:12:41.478Z,17.32
2019-04-06T22:15:11.635Z,15.95
2019-04-06T22:17:40.227Z,17.48
2019-04-06T22:20:08.740Z,16.60
2019-04-06T22:22:37.803Z,18.12
2019-04-06T22:25:06.404Z,17.48
2019-04-06T22:27:34.992Z,17.77
2019-04-06T22:30:06.805Z,17.57
2019-04-06T22:32:35.568Z,17.42
2019-04-06T22:35:07.775Z,18.05
2019-04-06T22:37:37.057Z,16.65
2019-04-06T22:40:06.180Z,17.50
2019-04-06T22:42:35.253Z,18.13
2019-04-06T22:45:05.924Z,17.12
2019-04-06T22:47:34.750Z,18.07
2019-04-06T22:50:05.176Z,18.35
2019-04-06T22:52:34.252Z,18.45
2019-04-06T22:55:03.434Z,19.95
2019-04-06T22:57:32.021Z,18.30
2019-04-06T23:00:05.447Z,18.40
2019-04-06T23:02:36.197Z,17.48
2019-04-06T23:05:10.551Z,18.85
2019-04-06T23:07:39.354Z,17.90
2019-04-06T23:10:08.049Z,17.65
2019-04-06T23:12:38.238Z,17.55
2019-04-06T23:15:07.225Z,17.77
2019-04-06T23:17:36.251Z,18.53
2019-04-06T23:20:06.481Z,18.92
2019-04-06T23:22:35.399Z,17.48
2019-04-06T23:25:04.523Z,18.20
2019-04-06T23:27:33.133Z,17.37
2019-04-06T23:30:01.707Z,17.15
2019-04-06T23:32:30.679Z,18.23
2019-04-06T23:35:02.062Z,18.23
2019-04-06T23:37:29.886Z,17.70
2019-04-06T23:39:59.041Z,17.73
2019-04-06T23:42:27.574Z,18.20
2019-04-06T23:44:56.774Z,18.48
2019-04-06T23:47:25.334Z,17.82
2019-04-06T23:49:54.042Z,17.57
2019-04-06T23:52:22.793Z,17.07
2019-04-06T23:54:52.005Z,18.15
2019-04-06T23:57:20.921Z,18.50
2019-04-06T23:59:49.914Z,17.70
